createdAt,value
2017-12-21T00:00:43.201Z,157.50
2017-12-21T00:03:13.458Z,140.97
2017-12-21T00:08:33.699Z,128.43
2017-12-21T00:13:56.353Z,122.73
2017-12-21T00:16:23.139Z,141.67
2017-12-21T00:21:42.506Z,149.00
2017-12-21T00:24:15.277Z,149.43
2017-12-21T00:26:54.568Z,125.40
2017-12-21T00:29:36.715Z,124.23
2017-12-21T00:32:05.179Z,130.60
2017-12-21T00:34:31.969Z,132.97
2017-12-21T00:36:58.721Z,132.27
2017-12-21T00:39:33.626Z,127.23
2017-12-21T00:42:00.383Z,128.27
2017-12-21T00:44:27.097Z,142.07
2017-12-21T00:47:01.351Z,124.67
2017-12-21T00:49:42.477Z,129.17
2017-12-21T00:52:09.208Z,120.40
2017-12-21T00:54:36.931Z,121.53
2017-12-21T00:57:03.619Z,129.33
2017-12-21T00:59:30.357Z,132.80
2017-12-21T01:01:57.061Z,122.60
2017-12-21T01:04:29.497Z,119.60
2017-12-21T01:07:06.245Z,119.00
2017-12-21T01:09:32.961Z,124.93
2017-12-21T01:12:03.176Z,130.90
2017-12-21T01:14:38.321Z,137.67
2017-12-21T01:17:06.016Z,154.07
2017-12-21T01:19:32.751Z,150.70
2017-12-21T01:21:59.555Z,153.73
2017-12-21T01:24:40.203Z,160.87
2017-12-21T01:27:08.961Z,172.23
2017-12-21T01:29:35.701Z,168.20
2017-12-21T01:32:02.424Z,170.57
2017-12-21T01:34:29.123Z,157.53
2017-12-21T01:36:55.833Z,179.00
2017-12-21T01:39:22.556Z,171.07
2017-12-21T01:41:57.633Z,175.40
2017-12-21T01:44:24.343Z,167.33
2017-12-21T01:46:51.039Z,168.77
2017-12-21T01:49:21.137Z,155.60
2017-12-21T01:51:48.782Z,137.20
2017-12-21T01:54:15.823Z,133.97
2017-12-21T01:56:50.929Z,132.53
2017-12-21T01:59:23.627Z,133.67
2017-12-21T02:04:39.059Z,124.03
2017-12-21T02:07:09.618Z,117.17
2017-12-21T02:09:37.354Z,131.63
2017-12-21T02:17:42.967Z,105.40
2017-12-21T02:20:09.706Z,106.13
2017-12-21T02:25:25.304Z,108.23
2017-12-21T02:27:59.960Z,108.07
2017-12-21T02:30:39.135Z,99.87
2017-12-21T02:33:05.858Z,112.43
2017-12-21T02:38:26.067Z,110.77
2017-12-21T02:43:38.598Z,94.33
2017-12-21T02:48:58.478Z,105.37
2017-12-21T02:54:24.508Z,97.93
2017-12-21T02:59:52.322Z,99.33
2017-12-21T03:02:29.298Z,104.53
2017-12-21T03:04:56.081Z,100.73
2017-12-21T03:07:24.728Z,106.67
2017-12-21T03:09:58.670Z,96.97
2017-12-21T03:12:25.414Z,104.37
2017-12-21T03:15:04.499Z,95.93
2017-12-21T03:17:31.190Z,95.73
2017-12-21T03:19:57.951Z,104.70
2017-12-21T03:22:26.641Z,122.07
2017-12-21T03:27:52.335Z,107.77
2017-12-21T03:30:32.388Z,111.53
2017-12-21T03:33:09.422Z,116.10
2017-12-21T03:35:36.162Z,128.43
2017-12-21T03:38:02.883Z,124.83
2017-12-21T03:40:30.557Z,122.40
2017-12-21T03:42:57.299Z,129.17
2017-12-21T03:45:24.956Z,121.20
2017-12-21T03:53:34.149Z,127.90
2017-12-21T03:56:00.830Z,124.77
2017-12-21T03:58:27.535Z,133.20
2017-12-21T04:00:54.314Z,122.77
2017-12-21T04:03:21.020Z,118.70
2017-12-21T04:05:51.546Z,124.27
2017-12-21T04:16:42.806Z,130.63
2017-12-21T04:19:09.550Z,128.23
2017-12-21T04:21:53.400Z,121.20
2017-12-21T04:24:34.006Z,130.37
2017-12-21T04:27:04.430Z,130.97
2017-12-21T04:29:37.278Z,121.97
2017-12-21T04:34:49.392Z,131.47
2017-12-21T04:37:16.104Z,132.67
2017-12-21T04:39:42.864Z,135.63
2017-12-21T04:42:17.067Z,146.43
2017-12-21T04:44:43.791Z,151.87
2017-12-21T04:47:20.683Z,157.47
2017-12-21T04:49:49.368Z,169.90
2017-12-21T04:52:25.874Z,173.20
2017-12-21T04:54:52.580Z,168.10
2017-12-21T04:57:20.276Z,159.20
2017-12-21T04:59:52.963Z,161.83
2017-12-21T05:02:28.442Z,137.27
2017-12-21T05:04:58.420Z,158.67
2017-12-21T05:07:31.884Z,157.03
2017-12-21T05:10:05.509Z,161.33
2017-12-21T05:12:32.267Z,144.23
2017-12-21T05:14:59.000Z,136.90
2017-12-21T05:17:38.200Z,137.13
2017-12-21T05:20:06.938Z,137.80
2017-12-21T05:22:33.687Z,146.83
2017-12-21T05:25:00.462Z,140.27
2017-12-21T05:27:34.934Z,162.07
2017-12-21T05:30:05.002Z,145.87
2017-12-21T05:35:21.412Z,179.83
2017-12-21T05:37:53.184Z,181.37
2017-12-21T05:40:19.888Z,185.30
2017-12-21T05:45:32.070Z,238.63
2017-12-21T05:47:58.831Z,238.00
2017-12-21T05:50:30.528Z,207.47
2017-12-21T05:53:07.012Z,196.40
2017-12-21T05:55:34.689Z,186.00
2017-12-21T05:58:01.490Z,187.77
2017-12-21T06:00:34.707Z,163.77
2017-12-21T06:03:04.522Z,130.53
2017-12-21T06:05:35.281Z,136.63
2017-12-21T06:08:02.010Z,116.70
2017-12-21T06:10:43.772Z,113.23
2017-12-21T06:13:10.544Z,103.83
2017-12-21T06:15:54.146Z,96.50
2017-12-21T06:18:21.246Z,101.50
2017-12-21T06:21:00.640Z,107.27
2017-12-21T06:23:31.010Z,127.00
2017-12-21T06:28:43.127Z,127.53
2017-12-21T06:31:24.114Z,122.17
2017-12-21T06:33:54.448Z,120.90
2017-12-21T06:36:34.268Z,127.13
2017-12-21T06:39:05.464Z,129.57
2017-12-21T06:41:32.200Z,139.10
2017-12-21T06:44:07.548Z,161.87
2017-12-21T06:46:48.066Z,165.30
2017-12-21T06:49:24.897Z,182.07
2017-12-21T06:52:10.658Z,185.23
2017-12-21T06:54:41.858Z,217.07
2017-12-21T07:00:00.800Z,190.27
2017-12-21T07:02:42.592Z,164.17
2017-12-21T07:05:10.298Z,152.50
2017-12-21T07:07:37.002Z,124.40
2017-12-21T07:10:05.716Z,137.03
2017-12-21T07:12:32.502Z,133.90
2017-12-21T07:15:00.286Z,118.33
2017-12-21T07:17:29.020Z,133.57
2017-12-21T07:19:59.494Z,128.87
2017-12-21T07:22:37.849Z,117.40
2017-12-21T07:25:10.430Z,130.13
2017-12-21T07:27:40.570Z,164.97
2017-12-21T07:30:18.374Z,161.90
2017-12-21T07:38:31.630Z,133.27
2017-12-21T07:40:59.340Z,126.47
2017-12-21T07:43:26.090Z,139.27
2017-12-21T07:45:56.900Z,134.70
2017-12-21T07:48:23.716Z,118.03
2017-12-21T07:50:56.918Z,120.13
2017-12-21T07:53:24.703Z,122.03
2017-12-21T07:58:37.190Z,118.90
2017-12-21T08:03:50.094Z,108.70
2017-12-21T08:06:17.762Z,102.77
2017-12-21T08:08:44.448Z,106.60
2017-12-21T08:11:14.941Z,105.00
2017-12-21T08:13:41.702Z,109.87
2017-12-21T08:16:08.476Z,108.20
2017-12-21T08:18:35.198Z,112.60
2017-12-21T08:21:01.884Z,113.77
2017-12-21T08:23:42.032Z,107.27
2017-12-21T08:26:14.152Z,107.53
2017-12-21T08:28:40.908Z,111.43
2017-12-21T08:31:07.664Z,100.77
2017-12-21T08:33:34.378Z,106.57
2017-12-21T08:36:02.110Z,89.23
2017-12-21T08:38:42.058Z,94.03
2017-12-21T08:41:12.432Z,95.23
2017-12-21T08:43:39.190Z,106.93
2017-12-21T08:46:05.928Z,102.53
2017-12-21T08:48:32.630Z,104.93
2017-12-21T08:51:07.826Z,98.47
2017-12-21T08:53:35.470Z,110.63
2017-12-21T08:56:02.214Z,106.50
2017-12-21T08:58:30.946Z,113.50
2017-12-21T09:00:57.626Z,107.17
2017-12-21T09:03:24.317Z,102.97
2017-12-21T09:05:55.058Z,92.97
2017-12-21T09:08:21.800Z,108.50
2017-12-21T09:11:02.398Z,93.53
2017-12-21T09:16:14.813Z,106.77
2017-12-21T09:18:41.503Z,99.23
2017-12-21T09:21:08.194Z,93.70
2017-12-21T09:23:34.918Z,89.27
2017-12-21T09:26:01.647Z,96.30
2017-12-21T09:28:45.144Z,87.40
2017-12-21T09:31:12.128Z,73.87
2017-12-21T09:36:31.415Z,75.83
2017-12-21T09:39:13.494Z,71.30
2017-12-21T09:41:42.229Z,72.07
2017-12-21T09:44:08.916Z,70.03
2017-12-21T09:46:37.578Z,70.37
2017-12-21T09:49:04.273Z,63.87
2017-12-21T09:51:30.960Z,68.17
2017-12-21T09:53:57.714Z,69.33
2017-12-21T09:56:24.405Z,68.50
2017-12-21T09:58:51.111Z,68.33
2017-12-21T10:01:32.427Z,68.70
2017-12-21T10:03:59.136Z,70.10
2017-12-21T10:06:25.860Z,62.50
2017-12-21T10:08:52.570Z,71.20
2017-12-21T10:11:19.334Z,67.70
2017-12-21T10:13:46.394Z,63.20
2017-12-21T10:16:13.115Z,64.63
2017-12-21T10:18:40.785Z,66.43
2017-12-21T10:21:07.462Z,68.23
2017-12-21T10:23:34.212Z,65.17
2017-12-21T10:28:46.507Z,67.73
2017-12-21T10:31:20.293Z,65.50
2017-12-21T10:33:47.006Z,68.37
2017-12-21T10:36:20.166Z,66.63
2017-12-21T10:38:46.853Z,66.83
2017-12-21T10:41:13.561Z,70.90
2017-12-21T10:43:40.255Z,68.70
2017-12-21T10:46:18.719Z,74.40
2017-12-21T10:48:45.401Z,66.60
2017-12-21T10:51:12.103Z,75.03
2017-12-21T10:53:38.821Z,74.60
2017-12-21T10:56:22.139Z,68.37
2017-12-21T10:58:55.064Z,70.27
2017-12-21T11:01:21.761Z,66.30
2017-12-21T11:03:52.571Z,129.23
2017-12-21T11:06:19.287Z,153.43
2017-12-21T11:08:45.981Z,65.87
2017-12-21T11:11:12.669Z,58.03
2017-12-21T11:13:50.113Z,68.17
2017-12-21T11:16:26.894Z,65.03
2017-12-21T11:18:57.719Z,64.87
2017-12-21T11:21:24.442Z,65.73
2017-12-21T11:23:51.150Z,64.17
2017-12-21T11:26:24.887Z,68.87
2017-12-21T11:28:58.577Z,62.90
2017-12-21T11:31:35.185Z,66.40
2017-12-21T11:34:01.887Z,68.87
2017-12-21T11:36:44.079Z,64.13
2017-12-21T11:42:05.615Z,73.67
2017-12-21T11:44:38.731Z,74.17
2017-12-21T11:47:05.959Z,69.37
2017-12-21T11:49:40.927Z,68.37
2017-12-21T11:52:15.670Z,74.17
2017-12-21T11:54:42.345Z,72.20
2017-12-21T11:57:09.057Z,71.30
2017-12-21T11:59:37.779Z,76.23
2017-12-21T12:02:04.543Z,73.40
2017-12-21T12:04:34.529Z,69.03
2017-12-21T12:07:16.108Z,73.67
2017-12-21T12:09:51.235Z,64.37
2017-12-21T12:12:31.687Z,64.23
2017-12-21T12:17:44.307Z,63.77
2017-12-21T12:20:11.017Z,67.80
2017-12-21T12:22:37.711Z,69.50
2017-12-21T12:25:08.207Z,68.63
2017-12-21T12:27:34.939Z,66.07
2017-12-21T12:30:07.479Z,71.67
2017-12-21T12:32:34.208Z,71.80
2017-12-21T12:35:00.893Z,77.37
2017-12-21T12:37:31.026Z,73.17
2017-12-21T12:40:01.071Z,73.73
2017-12-21T12:42:34.511Z,66.10
2017-12-21T12:45:08.145Z,74.70
2017-12-21T12:47:41.837Z,69.90
2017-12-21T12:50:11.687Z,76.53
2017-12-21T12:52:38.411Z,74.13
2017-12-21T12:55:05.112Z,66.23
2017-12-21T12:57:32.171Z,79.37
2017-12-21T13:02:46.015Z,80.27
2017-12-21T13:05:18.849Z,74.60
2017-12-21T13:07:47.393Z,73.80
2017-12-21T13:10:14.075Z,69.63
2017-12-21T13:12:40.756Z,67.57
2017-12-21T13:15:07.527Z,68.97
2017-12-21T13:17:41.687Z,64.57
2017-12-21T13:20:19.161Z,70.40
2017-12-21T13:22:45.909Z,74.13
2017-12-21T13:28:08.600Z,58.63
2017-12-21T13:30:35.307Z,66.73
2017-12-21T13:33:02.003Z,75.70
2017-12-21T13:35:29.672Z,67.47
2017-12-21T13:40:48.795Z,76.33
2017-12-21T13:43:15.509Z,69.87
2017-12-21T13:45:47.388Z,66.87
2017-12-21T13:48:14.119Z,66.60
2017-12-21T13:53:27.169Z,63.40
2017-12-21T13:55:53.923Z,66.37
2017-12-21T13:58:20.655Z,67.33
2017-12-21T14:00:47.688Z,68.63
2017-12-21T14:03:14.407Z,68.47
2017-12-21T14:08:39.971Z,67.70
2017-12-21T14:11:19.804Z,71.10
2017-12-21T14:13:46.519Z,64.57
2017-12-21T14:16:18.519Z,60.23
2017-12-21T14:18:45.197Z,59.80
2017-12-21T14:24:07.147Z,65.03
2017-12-21T14:26:34.611Z,59.10
2017-12-21T14:29:01.309Z,63.63
2017-12-21T14:31:28.057Z,58.90
2017-12-21T14:33:54.792Z,55.47
2017-12-21T14:36:21.487Z,61.70
2017-12-21T14:38:48.181Z,65.27
2017-12-21T14:41:19.114Z,60.67
2017-12-21T14:43:52.360Z,55.73
2017-12-21T14:46:28.840Z,50.73
2017-12-21T14:49:12.053Z,58.37
2017-12-21T14:51:42.103Z,54.03
2017-12-21T14:54:10.782Z,56.67
2017-12-21T14:56:37.457Z,57.60
2017-12-21T14:59:04.164Z,59.67
2017-12-21T15:01:33.989Z,59.70
2017-12-21T15:04:00.741Z,70.83
2017-12-21T15:06:27.500Z,56.10
2017-12-21T15:08:54.183Z,58.27
2017-12-21T15:11:20.891Z,61.17
2017-12-21T15:13:47.615Z,56.27
2017-12-21T15:16:14.297Z,55.57
2017-12-21T15:18:40.991Z,58.70
2017-12-21T15:21:07.783Z,55.80
2017-12-21T15:23:34.515Z,65.03
2017-12-21T15:26:01.217Z,56.90
2017-12-21T15:28:28.739Z,61.83
2017-12-21T15:30:56.244Z,65.67
2017-12-21T15:33:22.935Z,57.70
2017-12-21T15:35:49.694Z,63.03
2017-12-21T15:38:16.414Z,69.00
2017-12-21T15:40:43.111Z,67.20
2017-12-21T15:43:12.523Z,64.53
2017-12-21T15:45:39.258Z,63.33
2017-12-21T15:48:07.966Z,64.23
2017-12-21T15:50:34.693Z,59.20
2017-12-21T15:53:01.390Z,64.53
2017-12-21T15:55:28.655Z,65.50
2017-12-21T15:57:55.798Z,62.50
2017-12-21T16:00:22.527Z,68.27
2017-12-21T16:02:49.515Z,71.47
2017-12-21T16:05:17.550Z,80.10
2017-12-21T16:07:44.295Z,80.53
2017-12-21T16:10:11.833Z,94.90
2017-12-21T16:12:39.528Z,82.30
2017-12-21T16:15:06.213Z,82.27
2017-12-21T16:17:32.899Z,83.13
2017-12-21T16:19:59.943Z,79.37
2017-12-21T16:22:26.636Z,71.97
2017-12-21T16:24:53.549Z,80.87
2017-12-21T16:27:20.272Z,74.53
2017-12-21T16:30:00.010Z,74.37
2017-12-21T16:32:26.715Z,71.17
2017-12-21T16:37:42.595Z,78.63
2017-12-21T16:40:09.293Z,73.63
2017-12-21T16:42:36.005Z,82.40
2017-12-21T16:45:02.761Z,83.87
2017-12-21T16:47:29.455Z,76.57
2017-12-21T16:49:56.149Z,81.23
2017-12-21T16:52:22.851Z,76.13
2017-12-21T16:54:49.541Z,79.43
2017-12-21T16:57:16.239Z,72.60
2017-12-21T16:59:43.953Z,79.70
2017-12-21T17:02:10.639Z,73.00
2017-12-21T17:04:37.329Z,72.73
2017-12-21T17:07:04.058Z,62.93
2017-12-21T17:09:42.561Z,66.70
2017-12-21T17:12:09.313Z,69.67
2017-12-21T17:14:35.998Z,61.43
2017-12-21T17:17:02.691Z,57.07
2017-12-21T17:19:29.408Z,59.57
2017-12-21T17:21:56.205Z,56.03
2017-12-21T17:24:22.927Z,61.57
2017-12-21T17:26:49.629Z,65.57
2017-12-21T17:29:16.327Z,62.13
2017-12-21T17:31:43.057Z,65.43
2017-12-21T17:34:09.770Z,74.53
2017-12-21T17:36:36.467Z,85.47
2017-12-21T17:39:03.200Z,78.27
2017-12-21T17:41:29.967Z,86.03
2017-12-21T17:43:56.658Z,85.33
2017-12-21T17:46:23.346Z,81.87
2017-12-21T17:48:50.054Z,85.23
2017-12-21T17:51:16.739Z,83.17
2017-12-21T17:53:43.490Z,80.87
2017-12-21T17:56:10.204Z,72.17
2017-12-21T17:58:36.895Z,78.53
2017-12-21T18:01:03.584Z,74.20
2017-12-21T18:03:30.408Z,82.37
2017-12-21T18:05:57.096Z,75.03
2017-12-21T18:08:25.332Z,79.33
2017-12-21T18:10:52.040Z,88.70
2017-12-21T18:13:18.728Z,98.70
2017-12-21T18:15:45.451Z,93.83
2017-12-21T18:18:12.175Z,85.13
2017-12-21T18:20:38.860Z,92.53
2017-12-21T18:23:05.892Z,92.83
2017-12-21T18:25:32.654Z,96.07
2017-12-21T18:27:59.334Z,95.00
2017-12-21T18:30:26.044Z,98.13
2017-12-21T18:32:52.767Z,86.40
2017-12-21T18:35:19.471Z,92.93
2017-12-21T18:37:46.196Z,103.93
2017-12-21T18:40:12.905Z,95.37
2017-12-21T18:42:39.616Z,91.10
2017-12-21T18:45:06.318Z,105.93
2017-12-21T18:47:33.986Z,107.37
2017-12-21T18:50:00.706Z,105.37
2017-12-21T18:52:27.384Z,87.03
2017-12-21T18:54:54.127Z,104.37
2017-12-21T18:57:20.844Z,103.10
2017-12-21T18:59:47.560Z,100.47
2017-12-21T19:02:14.298Z,102.20
2017-12-21T19:04:41.010Z,101.50
2017-12-21T19:07:07.710Z,110.60
2017-12-21T19:09:34.415Z,109.30
2017-12-21T19:12:01.104Z,123.90
2017-12-21T19:14:27.812Z,114.53
2017-12-21T19:16:54.653Z,117.90
2017-12-21T19:19:21.356Z,119.83
2017-12-21T19:21:48.100Z,115.63
2017-12-21T19:24:14.806Z,114.57
2017-12-21T19:26:41.496Z,113.20
2017-12-21T19:29:08.176Z,109.77
2017-12-21T19:31:34.900Z,110.53
2017-12-21T19:34:01.672Z,115.00
2017-12-21T19:36:28.376Z,123.63
2017-12-21T19:38:55.093Z,121.93
2017-12-21T19:41:21.778Z,131.07
2017-12-21T19:43:48.472Z,138.53
2017-12-21T19:46:15.184Z,131.53
2017-12-21T19:48:41.891Z,133.43
2017-12-21T19:51:08.592Z,120.77
2017-12-21T19:53:35.310Z,130.17
2017-12-21T19:56:02.026Z,116.47
2017-12-21T19:58:29.756Z,115.93
2017-12-21T20:00:56.536Z,112.43
2017-12-21T20:03:23.210Z,114.30
2017-12-21T20:05:49.890Z,104.07
2017-12-21T20:08:16.720Z,101.07
2017-12-21T20:10:43.462Z,99.97
2017-12-21T20:13:10.194Z,112.43
2017-12-21T20:15:36.962Z,112.67
2017-12-21T20:18:03.652Z,106.47
2017-12-21T20:20:30.349Z,109.57
2017-12-21T20:22:57.093Z,107.20
2017-12-21T20:25:23.792Z,110.53
2017-12-21T20:27:50.488Z,102.10
2017-12-21T20:30:17.273Z,106.70
2017-12-21T20:32:44.018Z,93.03
2017-12-21T20:35:10.746Z,100.43
2017-12-21T20:37:37.596Z,99.47
2017-12-21T20:40:04.322Z,103.87
2017-12-21T20:42:31.056Z,104.93
2017-12-21T20:45:01.564Z,102.10
2017-12-21T20:50:02.867Z,104.13
2017-12-21T20:52:29.592Z,95.33
2017-12-21T20:54:56.302Z,105.17
2017-12-21T20:57:27.398Z,95.20
2017-12-21T20:59:54.078Z,91.33
2017-12-21T21:02:20.789Z,85.77
2017-12-21T21:04:47.505Z,70.17
2017-12-21T21:07:14.575Z,76.27
2017-12-21T21:09:41.280Z,84.50
2017-12-21T21:12:08.030Z,79.70
2017-12-21T21:14:38.380Z,78.13
2017-12-21T21:17:06.056Z,77.67
2017-12-21T21:19:32.782Z,78.90
2017-12-21T21:21:59.474Z,80.47
2017-12-21T21:24:28.128Z,86.63
2017-12-21T21:26:54.892Z,91.57
2017-12-21T21:29:21.594Z,82.07
2017-12-21T21:31:48.964Z,93.43
2017-12-21T21:34:15.680Z,84.50
2017-12-21T21:36:42.393Z,90.03
2017-12-21T21:39:09.108Z,98.93
2017-12-21T21:41:36.043Z,104.23
2017-12-21T21:44:02.750Z,113.17
2017-12-21T21:46:29.441Z,99.00
2017-12-21T21:48:56.142Z,100.60
2017-12-21T21:51:22.920Z,95.63
2017-12-21T21:53:49.615Z,99.47
2017-12-21T21:56:34.508Z,106.97
2017-12-21T21:59:08.433Z,105.47
2017-12-21T22:01:35.134Z,109.43
2017-12-21T22:04:01.867Z,97.77
2017-12-21T22:06:28.574Z,97.57
2017-12-21T22:08:57.305Z,90.10
2017-12-21T22:11:24.013Z,87.27
2017-12-21T22:13:50.702Z,82.33
2017-12-21T22:16:17.404Z,84.23
2017-12-21T22:18:50.073Z,86.57
2017-12-21T22:21:18.828Z,80.70
2017-12-21T22:23:45.524Z,86.73
2017-12-21T22:26:24.401Z,75.53
2017-12-21T22:28:51.118Z,77.13
2017-12-21T22:31:18.764Z,75.43
2017-12-21T22:33:45.509Z,67.00
2017-12-21T22:36:22.477Z,77.03
2017-12-21T22:38:57.062Z,79.27
2017-12-21T22:41:39.326Z,75.30
2017-12-21T22:44:07.065Z,84.07
2017-12-21T22:46:34.756Z,80.13
2017-12-21T22:49:04.981Z,89.57
2017-12-21T22:54:17.727Z,85.63
2017-12-21T22:56:44.426Z,83.43
2017-12-21T23:04:56.691Z,79.40
2017-12-21T23:07:40.339Z,81.20
2017-12-21T23:10:21.082Z,79.60
2017-12-21T23:18:22.843Z,77.83
2017-12-21T23:21:00.431Z,81.43
2017-12-21T23:26:17.762Z,76.47
2017-12-21T23:28:57.018Z,95.47
2017-12-21T23:31:25.761Z,90.20
2017-12-21T23:34:00.458Z,86.77
2017-12-21T23:36:27.177Z,98.57
2017-12-21T23:38:57.222Z,97.33
2017-12-21T23:41:23.913Z,101.17
2017-12-21T23:43:51.681Z,87.57
2017-12-21T23:46:32.571Z,93.33
2017-12-21T23:52:02.134Z,50.07
2017-12-21T23:54:45.951Z,53.37
2017-12-21T23:57:17.175Z,51.50
2017-12-21T23:59:45.859Z,36.90
